createdAt,value
2016-07-21T00:00:06.264Z,84.04
2016-07-21T00:01:06.294Z,83.85
2016-07-21T00:02:05.670Z,84.23
2016-07-21T00:03:06.423Z,84.23
2016-07-21T00:04:06.468Z,84.33
2016-07-21T00:05:06.500Z,84.7
2016-07-21T00:06:06.655Z,84.61
2016-07-21T00:07:06.671Z,84.99
2016-07-21T00:08:06.696Z,85.28
2016-07-21T00:09:06.728Z,84.61
2016-07-21T00:10:06.805Z,84.8
2016-07-21T00:11:06.841Z,84.99
2016-07-21T00:12:06.179Z,85.66
2016-07-21T00:13:06.916Z,85.47
2016-07-21T00:14:06.996Z,85.56
2016-07-21T00:15:07.032Z,85.66
2016-07-21T00:16:07.066Z,85.56
2016-07-21T00:17:07.122Z,85.94
2016-07-21T00:18:07.172Z,86.04
2016-07-21T00:19:07.224Z,86.04
2016-07-21T00:20:06.596Z,86.51
2016-07-21T00:21:07.323Z,86.32
2016-07-21T00:22:06.693Z,86.22
2016-07-21T00:23:07.455Z,86.13
2016-07-21T00:24:07.483Z,86.13
2016-07-21T00:25:07.533Z,86.04
2016-07-21T00:26:07.577Z,86.7
2016-07-21T00:27:06.932Z,86.51
2016-07-21T00:28:07.690Z,86.7
2016-07-21T00:29:07.738Z,86.42
2016-07-21T00:30:07.929Z,86.61
2016-07-21T00:31:07.836Z,86.51
2016-07-21T00:32:07.904Z,86.7
2016-07-21T00:33:07.262Z,86.42
2016-07-21T00:34:08.009Z,86.61
2016-07-21T00:35:07.340Z,86.32
2016-07-21T00:36:08.096Z,86.8
2016-07-21T00:37:08.147Z,86.32
2016-07-21T00:38:08.221Z,86.7
2016-07-21T00:39:08.264Z,86.61
2016-07-21T00:40:08.425Z,86.32
2016-07-21T00:41:08.693Z,86.8
2016-07-21T00:42:07.732Z,86.51
2016-07-21T00:43:08.455Z,86.22
2016-07-21T00:44:08.521Z,86.42
2016-07-21T00:45:07.920Z,86.32
2016-07-21T00:46:08.630Z,87.18
2016-07-21T00:47:08.653Z,87.18
2016-07-21T00:48:08.738Z,86.8
2016-07-21T00:49:08.787Z,86.99
2016-07-21T00:50:08.996Z,87.37
2016-07-21T00:51:08.877Z,87.27
2016-07-21T00:52:08.954Z,87.46
2016-07-21T00:53:08.281Z,87.85
2016-07-21T00:54:09.011Z,87.85
2016-07-21T00:55:09.377Z,87.75
2016-07-21T00:56:09.122Z,87.46
2016-07-21T00:57:09.186Z,87.65
2016-07-21T00:58:09.243Z,87.85
2016-07-21T00:59:09.287Z,87.65
2016-07-21T01:00:09.431Z,88.42
2016-07-21T01:01:09.401Z,88.42
2016-07-21T01:02:08.724Z,88.51
2016-07-21T01:03:09.473Z,88.23
2016-07-21T01:04:09.526Z,88.13
2016-07-21T01:05:09.912Z,88.32
2016-07-21T01:06:08.929Z,88.32
2016-07-21T01:07:08.996Z,88.13
2016-07-21T01:08:09.729Z,88.32
2016-07-21T01:09:09.806Z,88.6
2016-07-21T01:10:09.413Z,88.6
2016-07-21T01:11:09.881Z,88.7
2016-07-21T01:12:09.959Z,88.51
2016-07-21T01:13:10.011Z,88.32
2016-07-21T01:14:10.039Z,87.94
2016-07-21T01:15:10.129Z,88.13
2016-07-21T01:16:09.439Z,88.32
2016-07-21T01:17:10.189Z,87.6
2016-07-21T01:18:10.256Z,87.7
2016-07-21T01:19:10.313Z,87.65
2016-07-21T01:20:10.391Z,87.7
2016-07-21T01:21:10.459Z,87.65
2016-07-21T01:22:10.470Z,87.75
2016-07-21T01:23:10.515Z,87.89
2016-07-21T01:24:10.575Z,87.89
2016-07-21T01:25:10.615Z,87.7
2016-07-21T01:26:10.667Z,87.13
2016-07-21T01:27:10.024Z,87.51
2016-07-21T01:28:10.754Z,86.65
2016-07-21T01:29:10.795Z,85.99
2016-07-21T01:30:10.870Z,86.18
2016-07-21T01:31:10.907Z,86.55
2016-07-21T01:32:10.962Z,85.89
2016-07-21T01:33:11.009Z,86.08
2016-07-21T01:34:11.080Z,85.41
2016-07-21T01:35:10.432Z,85.41
2016-07-21T01:36:10.466Z,85.22
2016-07-21T01:37:10.528Z,85.41
2016-07-21T01:38:11.262Z,85.37
2016-07-21T01:39:11.334Z,85.6
2016-07-21T01:40:11.394Z,85.89
2016-07-21T01:41:10.915Z,84.94
2016-07-21T01:42:11.474Z,84.84
2016-07-21T01:43:10.830Z,85.13
2016-07-21T01:44:11.595Z,84.94
2016-07-21T01:45:11.622Z,85.03
2016-07-21T01:46:11.676Z,84.84
2016-07-21T01:47:11.719Z,84.94
2016-07-21T01:48:11.790Z,84.56
2016-07-21T01:49:11.833Z,84.65
2016-07-21T01:50:11.881Z,84.75
2016-07-21T01:51:11.949Z,84.46
2016-07-21T01:52:12.007Z,84.27
2016-07-21T01:53:11.347Z,84.17
2016-07-21T01:54:12.101Z,83.98
2016-07-21T01:55:11.459Z,83.8
2016-07-21T01:56:12.203Z,83.41
2016-07-21T01:57:12.233Z,83.61
2016-07-21T01:58:12.335Z,83.13
2016-07-21T01:59:12.339Z,83.61
2016-07-21T02:00:11.704Z,83.41
2016-07-21T02:01:11.745Z,83.51
2016-07-21T02:02:12.519Z,83.61
2016-07-21T02:03:11.870Z,83.41
2016-07-21T02:04:12.612Z,83.51
2016-07-21T02:05:12.673Z,83.84
2016-07-21T02:06:12.728Z,83.65
2016-07-21T02:07:12.772Z,83.36
2016-07-21T02:08:12.804Z,82.69
2016-07-21T02:09:12.152Z,82.12
2016-07-21T02:10:12.207Z,81.74
2016-07-21T02:11:12.958Z,81.65
2016-07-21T02:12:12.302Z,82.03
2016-07-21T02:13:13.054Z,81.55
2016-07-21T02:14:13.099Z,81.26
2016-07-21T02:15:13.154Z,81.46
2016-07-21T02:16:13.231Z,81.46
2016-07-21T02:17:13.256Z,81.36
2016-07-21T02:18:13.332Z,81.46
2016-07-21T02:19:13.375Z,81.74
2016-07-21T02:20:13.418Z,81.51
2016-07-21T02:21:13.458Z,81.55
2016-07-21T02:22:13.553Z,81.65
2016-07-21T02:23:13.564Z,81.36
2016-07-21T02:24:13.639Z,81.36
2016-07-21T02:25:13.662Z,81.65
2016-07-21T02:26:13.711Z,81.46
2016-07-21T02:27:13.770Z,81.17
2016-07-21T02:28:13.819Z,81.26
2016-07-21T02:29:13.863Z,81.26
2016-07-21T02:30:13.917Z,80.98
2016-07-21T02:31:13.996Z,80.69
2016-07-21T02:32:14.039Z,80.5
2016-07-21T02:33:13.384Z,80.79
2016-07-21T02:34:13.427Z,80.98
2016-07-21T02:35:13.479Z,80.5
2016-07-21T02:36:14.263Z,80.69
2016-07-21T02:37:14.291Z,80.5
2016-07-21T02:38:14.345Z,80.5
2016-07-21T02:39:14.382Z,80.5
2016-07-21T02:40:14.451Z,80.22
2016-07-21T02:41:14.533Z,80.22
2016-07-21T02:42:14.536Z,80.31
2016-07-21T02:43:14.608Z,80.31
2016-07-21T02:44:13.934Z,80.41
2016-07-21T02:45:14.681Z,80.27
2016-07-21T02:46:14.733Z,79.99
2016-07-21T02:47:14.804Z,80.27
2016-07-21T02:48:14.838Z,80.36
2016-07-21T02:49:14.930Z,80.6
2016-07-21T02:50:14.940Z,80.22
2016-07-21T02:51:15.013Z,80.12
2016-07-21T02:52:15.038Z,80.22
2016-07-21T02:53:15.089Z,80.22
2016-07-21T02:54:15.139Z,80.41
2016-07-21T02:55:15.236Z,80.6
2016-07-21T02:56:15.242Z,80.5
2016-07-21T02:57:14.608Z,80.22
2016-07-21T02:58:15.351Z,79.74
2016-07-21T02:59:15.401Z,79.83
2016-07-21T03:00:15.466Z,79.83
2016-07-21T03:01:15.532Z,79.93
2016-07-21T03:02:15.572Z,79.8
2016-07-21T03:03:14.908Z,79.89
2016-07-21T03:04:14.956Z,80.12
2016-07-21T03:05:15.722Z,80.31
2016-07-21T03:06:15.781Z,80.41
2016-07-21T03:07:15.803Z,80.41
2016-07-21T03:08:15.867Z,80.5
2016-07-21T03:09:15.945Z,80.41
2016-07-21T03:10:15.960Z,80.41
2016-07-21T03:11:16.010Z,80.22
2016-07-21T03:12:16.079Z,80.22
2016-07-21T03:13:16.128Z,80.5
2016-07-21T03:14:16.156Z,80.41
2016-07-21T03:15:16.212Z,80.5
2016-07-21T03:16:16.283Z,80.02
2016-07-21T03:17:16.308Z,79.93
2016-07-21T03:18:16.385Z,79.93
2016-07-21T03:19:16.410Z,79.93
2016-07-21T03:20:16.464Z,79.93
2016-07-21T03:21:16.523Z,79.93
2016-07-21T03:22:16.588Z,80.12
2016-07-21T03:23:16.638Z,80.12
2016-07-21T03:24:16.664Z,79.74
2016-07-21T03:25:16.738Z,79.46
2016-07-21T03:26:16.795Z,79.74
2016-07-21T03:27:16.837Z,79.64
2016-07-21T03:28:16.887Z,79.74
2016-07-21T03:29:16.235Z,79.93
2016-07-21T03:30:16.968Z,80.12
2016-07-21T03:31:16.339Z,79.46
2016-07-21T03:32:17.065Z,79.64
2016-07-21T03:33:17.124Z,79.46
2016-07-21T03:34:17.171Z,79.64
2016-07-21T03:35:17.218Z,79.55
2016-07-21T03:36:17.275Z,79.74
2016-07-21T03:37:16.642Z,79.64
2016-07-21T03:38:17.373Z,79.74
2016-07-21T03:39:17.446Z,79.93
2016-07-21T03:40:17.489Z,79.64
2016-07-21T03:41:17.726Z,79.93
2016-07-21T03:42:17.576Z,79.74
2016-07-21T03:43:17.618Z,79.74
2016-07-21T03:44:17.677Z,79.55
2016-07-21T03:45:17.745Z,79.64
2016-07-21T03:46:17.780Z,79.55
2016-07-21T03:47:17.128Z,79.55
2016-07-21T03:48:17.183Z,80.02
2016-07-21T03:49:17.966Z,79.8
2016-07-21T03:50:18.001Z,79.74
2016-07-21T03:51:18.031Z,79.74
2016-07-21T03:52:18.104Z,79.64
2016-07-21T03:53:18.124Z,79.64
2016-07-21T03:54:18.428Z,79.55
2016-07-21T03:55:17.545Z,79.74
2016-07-21T03:56:18.304Z,79.74
2016-07-21T03:57:18.335Z,79.83
2016-07-21T03:58:18.379Z,79.46
2016-07-21T03:59:17.751Z,79.64
2016-07-21T04:00:17.786Z,79.55
2016-07-21T04:01:18.527Z,79.64
2016-07-21T04:02:18.587Z,79.74
2016-07-21T04:03:17.961Z,79.74
2016-07-21T04:04:18.692Z,79.55
2016-07-21T04:05:18.737Z,79.83
2016-07-21T04:06:18.786Z,79.64
2016-07-21T04:07:18.863Z,79.64
2016-07-21T04:08:18.913Z,79.46
2016-07-21T04:09:18.964Z,79.83
2016-07-21T04:10:19.001Z,79.74
2016-07-21T04:11:19.044Z,79.7
2016-07-21T04:12:18.388Z,79.64
2016-07-21T04:13:18.443Z,80.12
2016-07-21T04:14:19.211Z,79.93
2016-07-21T04:15:19.286Z,79.93
2016-07-21T04:16:19.301Z,79.93
2016-07-21T04:17:19.368Z,80.02
2016-07-21T04:18:19.426Z,80.12
2016-07-21T04:19:19.467Z,79.93
2016-07-21T04:20:19.494Z,79.93
2016-07-21T04:21:19.547Z,79.83
2016-07-21T04:22:19.598Z,80.5
2016-07-21T04:23:19.677Z,80.5
2016-07-21T04:24:19.724Z,80.31
2016-07-21T04:25:19.061Z,80.31
2016-07-21T04:26:19.825Z,80.41
2016-07-21T04:27:19.166Z,80.08
2016-07-21T04:28:19.929Z,80.55
2016-07-21T04:29:19.257Z,80.79
2016-07-21T04:30:20.006Z,80.94
2016-07-21T04:31:20.059Z,80.94
2016-07-21T04:32:20.113Z,80.55
2016-07-21T04:33:20.167Z,80.84
2016-07-21T04:34:20.212Z,80.55
2016-07-21T04:35:20.273Z,80.65
2016-07-21T04:36:20.333Z,80.84
2016-07-21T04:37:20.387Z,80.55
2016-07-21T04:38:20.426Z,80.55
2016-07-21T04:39:20.472Z,80.94
2016-07-21T04:40:20.553Z,80.8
2016-07-21T04:41:20.637Z,81.24
2016-07-21T04:42:20.618Z,81.67
2016-07-21T04:43:20.001Z,81.86
2016-07-21T04:44:20.724Z,82.15
2016-07-21T04:45:20.776Z,82.34
2016-07-21T04:46:20.129Z,82.62
2016-07-21T04:47:20.169Z,82.62
2016-07-21T04:48:20.945Z,82.53
2016-07-21T04:49:20.987Z,82.43
2016-07-21T04:50:21.027Z,82.76
2016-07-21T04:51:20.415Z,82.67
2016-07-21T04:52:20.442Z,82.28
2016-07-21T04:53:21.164Z,82.67
2016-07-21T04:54:21.436Z,82.76
2016-07-21T04:55:21.274Z,83.04
2016-07-21T04:56:21.346Z,83.29
2016-07-21T04:57:21.374Z,83.29
2016-07-21T04:58:20.733Z,83.86
2016-07-21T04:59:21.478Z,83.86
2016-07-21T05:00:20.842Z,84.05
2016-07-21T05:01:20.867Z,84.52
2016-07-21T05:02:21.618Z,84.43
2016-07-21T05:03:21.689Z,85
2016-07-21T05:04:21.032Z,85.43
2016-07-21T05:05:21.797Z,85.91
2016-07-21T05:06:21.824Z,86.47
2016-07-21T05:07:21.885Z,86.19
2016-07-21T05:08:21.913Z,87.52
2016-07-21T05:09:21.965Z,88.05
2016-07-21T05:10:22.015Z,88.71
2016-07-21T05:11:22.089Z,89.57
2016-07-21T05:12:22.134Z,89.95
2016-07-21T05:13:21.476Z,90.33
2016-07-21T05:14:21.526Z,90.9
2016-07-21T05:15:22.278Z,91.28
2016-07-21T05:16:22.350Z,91.66
2016-07-21T05:17:22.354Z,91.75
2016-07-21T05:18:21.711Z,92.51
2016-07-21T05:19:21.757Z,92.9
2016-07-21T05:20:22.500Z,93.08
2016-07-21T05:21:21.858Z,93.18
2016-07-21T05:22:22.616Z,93.56
2016-07-21T05:23:22.642Z,93.94
2016-07-21T05:24:22.699Z,94.32
2016-07-21T05:25:22.767Z,94.89
2016-07-21T05:26:22.818Z,94.89
2016-07-21T05:27:22.139Z,95.36
2016-07-21T05:28:22.914Z,95.36
2016-07-21T05:29:22.936Z,95.65
2016-07-21T05:30:22.982Z,96.12
2016-07-21T05:31:23.053Z,95.94
2016-07-21T05:32:23.086Z,96.08
2016-07-21T05:33:22.441Z,96.22
2016-07-21T05:34:23.195Z,96.6
2016-07-21T05:35:23.258Z,96.79
2016-07-21T05:36:22.590Z,96.79
2016-07-21T05:37:23.349Z,96.88
2016-07-21T05:38:23.374Z,96.98
2016-07-21T05:39:23.439Z,96.88
2016-07-21T05:40:23.473Z,96.93
2016-07-21T05:41:23.514Z,97.36
2016-07-21T05:42:23.567Z,97.55
2016-07-21T05:43:23.620Z,97.74
2016-07-21T05:44:23.669Z,97.55
2016-07-21T05:45:23.739Z,98.36
2016-07-21T05:46:23.076Z,97.92
2016-07-21T05:47:23.113Z,98.5
2016-07-21T05:48:23.852Z,98.36
2016-07-21T05:49:23.935Z,98.4
2016-07-21T05:50:23.952Z,98.12
2016-07-21T05:51:23.999Z,98.79
2016-07-21T05:52:24.050Z,99.16
2016-07-21T05:53:24.126Z,98.69
2016-07-21T05:54:24.153Z,99.07
2016-07-21T05:55:23.503Z,99.3
2016-07-21T05:56:24.246Z,99.64
2016-07-21T05:57:24.300Z,99.83
2016-07-21T05:58:24.340Z,99.54
2016-07-21T05:59:23.705Z,99.73
2016-07-21T06:00:24.444Z,99.99
2016-07-21T06:01:24.507Z,99.92
2016-07-21T06:02:23.859Z,99.99
2016-07-21T06:03:24.612Z,99.99
2016-07-21T06:04:24.658Z,99.99
2016-07-21T06:05:24.710Z,99.99
2016-07-21T06:06:24.754Z,99.99
2016-07-21T06:07:24.327Z,99.99
2016-07-21T06:08:24.860Z,99.99
2016-07-21T06:09:24.191Z,99.99
2016-07-21T06:10:24.951Z,99.99
2016-07-21T06:11:24.997Z,99.99
2016-07-21T06:12:25.050Z,99.99
2016-07-21T06:13:25.062Z,99.99
2016-07-21T06:14:25.114Z,99.99
2016-07-21T06:15:25.184Z,99.99
2016-07-21T06:16:25.218Z,99.99
2016-07-21T06:17:25.282Z,99.99
2016-07-21T06:18:25.315Z,99.99
2016-07-21T06:19:25.390Z,99.99
2016-07-21T06:20:25.413Z,99.99
2016-07-21T06:21:25.462Z,99.99
2016-07-21T06:22:25.524Z,99.99
2016-07-21T06:23:24.868Z,99.99
2016-07-21T06:24:25.632Z,99.99
2016-07-21T06:25:25.646Z,99.99
2016-07-21T06:26:25.016Z,99.99
2016-07-21T06:27:25.775Z,99.99
2016-07-21T06:28:25.109Z,99.99
2016-07-21T06:29:25.884Z,99.99
2016-07-21T06:30:25.921Z,99.99
2016-07-21T06:31:25.266Z,99.99
2016-07-21T06:32:26.000Z,99.99
2016-07-21T06:33:25.360Z,99.99
2016-07-21T06:34:26.106Z,99.99
2016-07-21T06:35:33.184Z,99.99
